Time;durP1;ratioP1;P1;durP2;ratioP2;P2;SDS_P1;SDS_P2;PMS_P1;PMS_P2;Temp;Humidity;BMP_temperature;BMP_pressure;BME280_temperature;BME280_humidity;BME280_pressure;Samples;Min_cycle;Max_cycle;Signal;HPM_P1;HPM_P2
2024/02/23 00:01:49;;;;;;;1.17;1.07;;;13.00;99.90;;;;;;4990156;28;20230;-79
2024/02/23 00:04:18;;;;;;;1.60;1.05;;;13.00;99.90;;;;;;4994953;28;20485;-78
2024/02/23 00:06:46;;;;;;;1.17;1.00;;;12.90;99.90;;;;;;4994947;28;20226;-77
2024/02/23 00:09:21;;;;;;;0.90;0.85;;;12.90;99.90;;;;;;4996375;28;20480;-77
2024/02/23 00:11:49;;;;;;;0.85;0.80;;;13.00;99.90;;;;;;4996189;28;20534;-78
2024/02/23 00:14:18;;;;;;;0.90;0.90;;;13.00;99.90;;;;;;4996486;28;20293;-78
2024/02/23 00:16:45;;;;;;;1.77;1.00;;;13.00;99.90;;;;;;4996594;28;20477;-78
2024/02/23 00:19:19;;;;;;;1.00;0.88;;;13.00;99.90;;;;;;4990271;28;20806;-78
2024/02/23 00:21:49;;;;;;;1.13;0.90;;;12.90;99.90;;;;;;4991455;28;20284;-77
2024/02/23 00:24:21;;;;;;;1.17;1.00;;;12.90;99.90;;;;;;4994996;28;20543;-78
2024/02/23 00:26:50;;;;;;;1.23;1.13;;;12.90;99.90;;;;;;4996580;28;20222;-79
2024/02/23 00:29:17;;;;;;;1.57;1.00;;;12.90;99.90;;;;;;4995029;28;20472;-77
2024/02/23 00:31:48;;;;;;;1.52;0.90;;;12.90;99.90;;;;;;4996172;28;20557;-79
2024/02/23 00:34:16;;;;;;;1.10;0.90;;;13.00;99.90;;;;;;4995926;28;20317;-79
2024/02/23 00:36:46;;;;;;;1.10;0.90;;;12.90;99.90;;;;;;4996528;28;20307;-79
2024/02/23 00:39:13;;;;;;;1.35;1.00;;;13.00;99.90;;;;;;4995459;28;20492;-79
2024/02/23 00:41:50;;;;;;;1.20;1.10;;;13.00;99.90;;;;;;4996150;28;20222;-77
2024/02/23 00:44:17;;;;;;;1.03;0.90;;;13.00;99.90;;;;;;5000657;28;20659;-77
2024/02/23 00:46:44;;;;;;;1.00;0.90;;;13.00;99.90;;;;;;5015359;28;20497;-79
2024/02/23 00:49:11;;;;;;;0.90;0.90;;;12.90;99.90;;;;;;5014993;28;20226;-79
2024/02/23 00:51:38;;;;;;;1.00;0.90;;;12.90;99.90;;;;;;5006043;28;20248;-79
2024/02/23 00:54:06;;;;;;;1.10;1.00;;;12.90;99.90;;;;;;5014837;28;20478;-79
2024/02/23 00:56:33;;;;;;;0.80;0.80;;;13.00;99.90;;;;;;5015128;28;20218;-77
2024/02/23 00:59:01;;;;;;;1.30;1.00;;;13.00;99.90;;;;;;5006683;28;20505;-78
2024/02/23 01:01:28;;;;;;;1.10;1.00;;;13.00;99.90;;;;;;5014986;28;20460;-79
2024/02/23 01:03:55;;;;;;;1.53;1.17;;;13.00;99.90;;;;;;5014692;28;20508;-77
2024/02/23 01:06:22;;;;;;;1.90;1.20;;;13.00;99.90;;;;;;5014967;28;20502;-78
2024/02/23 01:08:53;;;;;;;1.52;1.35;;;13.10;99.90;;;;;;5015245;28;20469;-79
2024/02/23 01:11:20;;;;;;;1.23;1.10;;;13.00;99.90;;;;;;5013917;28;20222;-77
2024/02/23 01:13:47;;;;;;;1.38;1.13;;;13.00;99.90;;;;;;5015254;28;20473;-79
2024/02/23 01:16:16;;;;;;;1.00;0.98;;;13.00;99.90;;;;;;5014651;28;20694;-77
2024/02/23 01:18:44;;;;;;;1.30;1.20;;;13.10;99.90;;;;;;5015078;28;20240;-78
2024/02/23 01:21:11;;;;;;;1.30;1.20;;;13.10;99.90;;;;;;5014400;28;20479;-79
2024/02/23 01:23:38;;;;;;;1.23;0.80;;;13.10;99.90;;;;;;5014534;28;20479;-77
2024/02/23 01:26:05;;;;;;;1.90;1.70;;;13.00;99.90;;;;;;5014393;28;20519;-77
2024/02/23 01:28:33;;;;;;;1.77;1.17;;;12.90;99.90;;;;;;5014818;28;20860;-77
2024/02/23 01:31:00;;;;;;;1.20;1.10;;;12.90;99.90;;;;;;5015088;28;20222;-79
2024/02/23 01:33:29;;;;;;;1.60;1.50;;;12.90;99.90;;;;;;5013909;28;20268;-79
2024/02/23 01:35:58;;;;;;;1.20;1.10;;;12.90;99.90;;;;;;5014753;28;20475;-79
2024/02/23 01:38:29;;;;;;;2.35;1.20;;;12.90;99.90;;;;;;5014305;28;20641;-79
2024/02/23 01:40:58;;;;;;;1.20;1.10;;;12.90;99.90;;;;;;5014391;28;20254;-77
2024/02/23 01:43:25;;;;;;;1.40;0.93;;;12.90;99.90;;;;;;5014166;28;20230;-77
2024/02/23 01:45:53;;;;;;;1.77;1.20;;;12.90;99.90;;;;;;5014074;28;20487;-78
2024/02/23 01:48:20;;;;;;;2.07;0.90;;;13.00;99.90;;;;;;5003782;28;20476;-78
2024/02/23 01:50:49;;;;;;;1.97;1.30;;;13.00;99.90;;;;;;5014495;28;20519;-77
2024/02/23 01:53:17;;;;;;;6.40;4.50;;;13.00;99.90;;;;;;5013648;28;20564;-77
2024/02/23 01:55:47;;;;;;;1.98;1.20;;;13.00;99.90;;;;;;5014220;28;20469;-77
2024/02/23 01:58:15;;;;;;;3.70;2.10;;;13.10;99.90;;;;;;5013511;28;20305;-78
2024/02/23 02:00:46;;;;;;;1.40;1.30;;;13.10;99.90;;;;;;5014103;28;20526;-77
2024/02/23 02:03:13;;;;;;;3.83;2.92;;;13.10;99.90;;;;;;5013396;28;20680;-79
2024/02/23 02:05:40;;;;;;;1.67;0.97;;;13.10;99.90;;;;;;5014228;28;20250;-78
2024/02/23 02:08:09;;;;;;;3.47;2.83;;;13.10;99.90;;;;;;5013765;28;20465;-78
2024/02/23 02:10:36;;;;;;;1.50;1.40;;;13.20;99.90;;;;;;4993466;28;20496;-77
2024/02/23 02:13:05;;;;;;;5.50;4.30;;;13.10;99.90;;;;;;4994538;28;20501;-78
2024/02/23 02:15:37;;;;;;;20.05;13.13;;;13.30;99.90;;;;;;4993843;28;20245;-78
2024/02/23 02:18:07;;;;;;;4.10;1.63;;;13.30;99.90;;;;;;4994821;28;20300;-77
2024/02/23 02:20:37;;;;;;;9.30;7.10;;;13.30;99.90;;;;;;4993944;28;20458;-77
2024/02/23 02:23:07;;;;;;;1.20;1.10;;;13.30;99.90;;;;;;4994385;28;20967;-78
2024/02/23 02:25:35;;;;;;;2.72;1.80;;;13.40;99.90;;;;;;4993776;28;20514;-78
2024/02/23 02:28:02;;;;;;;10.88;7.07;;;13.40;99.90;;;;;;4994055;28;20226;-78
2024/02/23 02:30:32;;;;;;;2.80;2.10;;;13.50;99.90;;;;;;4994355;28;20250;-77
2024/02/23 02:32:59;;;;;;;2.00;1.37;;;13.50;99.90;;;;;;4994208;28;20528;-77
2024/02/23 02:35:26;;;;;;;2.50;2.07;;;13.60;99.90;;;;;;4993348;28;20474;-77
2024/02/23 02:37:53;;;;;;;4.20;2.80;;;13.60;99.90;;;;;;4994223;28;20480;-77
2024/02/23 02:40:19;;;;;;;2.30;2.10;;;13.50;99.90;;;;;;4993613;28;20541;-77
2024/02/23 02:42:48;;;;;;;6.17;4.60;;;13.50;99.90;;;;;;4993928;28;20579;-77
2024/02/23 02:45:17;;;;;;;2.08;1.70;;;13.50;99.90;;;;;;4993599;28;20490;-77
2024/02/23 02:47:44;;;;;;;10.40;6.87;;;13.50;99.90;;;;;;4994373;28;20227;-79
2024/02/23 02:50:13;;;;;;;2.23;1.47;;;13.40;99.90;;;;;;4991325;28;20519;-79
2024/02/23 02:52:40;;;;;;;15.70;11.33;;;13.30;99.90;;;;;;5001096;28;20563;-77
2024/02/23 02:55:10;;;;;;;5.73;3.77;;;13.30;99.90;;;;;;4994086;28;20470;-79
2024/02/23 02:57:37;;;;;;;8.50;6.45;;;13.20;99.90;;;;;;4993793;28;20532;-77
2024/02/23 03:00:12;;;;;;;6.10;5.47;;;13.30;99.90;;;;;;4993493;28;20265;-77
2024/02/23 03:02:45;;;;;;;8.97;5.87;;;13.30;99.90;;;;;;4993259;28;20679;-78
2024/02/23 03:05:12;;;;;;;1.90;1.10;;;13.30;99.90;;;;;;4993675;28;20509;-79
2024/02/23 03:07:39;;;;;;;2.40;1.47;;;13.20;99.90;;;;;;4993750;28;20458;-77
2024/02/23 03:10:07;;;;;;;6.13;5.13;;;13.10;99.90;;;;;;4994421;28;20489;-79
2024/02/23 03:12:34;;;;;;;8.27;5.70;;;13.10;99.90;;;;;;4993375;28;20735;-79
2024/02/23 03:15:02;;;;;;;5.37;2.00;;;13.20;99.90;;;;;;4993957;28;20474;-77
2024/02/23 03:17:31;;;;;;;5.10;2.03;;;13.10;99.90;;;;;;4993477;28;20470;-78
2024/02/23 03:19:58;;;;;;;3.20;1.50;;;13.10;99.90;;;;;;4995833;28;20474;-79
2024/02/23 03:22:25;;;;;;;2.38;1.92;;;13.10;99.90;;;;;;4997062;28;20474;-78
2024/02/23 03:24:55;;;;;;;2.30;1.70;;;13.00;99.90;;;;;;4997144;28;20226;-79
2024/02/23 03:27:30;;;;;;;3.75;2.38;;;12.90;99.90;;;;;;4997280;28;20473;-78
2024/02/23 03:29:57;;;;;;;2.03;1.50;;;12.90;99.90;;;;;;4998044;28;20234;-77
2024/02/23 03:32:24;;;;;;;3.67;2.53;;;12.90;99.90;;;;;;4997052;28;20234;-77
2024/02/23 03:34:53;;;;;;;3.42;2.78;;;12.80;99.90;;;;;;4997067;28;20480;-77
2024/02/23 03:37:20;;;;;;;2.25;1.60;;;12.80;99.90;;;;;;4997537;28;20564;-78
2024/02/23 03:39:48;;;;;;;1.97;0.80;;;12.70;99.90;;;;;;5000564;28;20573;-78
2024/02/23 03:42:15;;;;;;;2.00;0.90;;;12.70;99.90;;;;;;5001690;28;20470;-78
2024/02/23 03:44:43;;;;;;;0.85;0.80;;;12.70;99.90;;;;;;4997027;28;20315;-79
2024/02/23 03:47:13;;;;;;;5.68;2.25;;;12.70;99.90;;;;;;4997298;28;20254;-79
2024/02/23 03:49:40;;;;;;;4.25;2.35;;;12.70;99.90;;;;;;4996794;28;20679;-78
2024/02/23 03:52:08;;;;;;;6.18;3.35;;;12.60;99.90;;;;;;4997201;28;20250;-79
2024/02/23 03:54:35;;;;;;;4.18;2.63;;;12.60;99.90;;;;;;4996726;28;20310;-79
2024/02/23 03:57:03;;;;;;;3.55;1.65;;;12.60;99.90;;;;;;4997128;28;20624;-78
2024/02/23 03:59:30;;;;;;;3.60;1.47;;;12.50;99.90;;;;;;4995795;28;20313;-79
2024/02/23 04:02:01;;;;;;;6.38;4.65;;;12.50;99.90;;;;;;4996355;28;20561;-79
2024/02/23 04:04:28;;;;;;;1.63;1.35;;;12.50;99.90;;;;;;4996746;28;20699;-77
2024/02/23 04:06:55;;;;;;;2.67;0.75;;;12.60;99.90;;;;;;4997202;28;20223;-77
2024/02/23 04:09:27;;;;;;;6.35;4.32;;;12.50;99.90;;;;;;4996596;28;20231;-77
2024/02/23 04:11:54;;;;;;;2.53;1.70;;;12.50;99.90;;;;;;5004746;28;20310;-78
2024/02/23 04:14:21;;;;;;;6.55;3.25;;;12.50;99.90;;;;;;4996864;28;20235;-79
2024/02/23 04:16:48;;;;;;;1.30;1.00;;;12.60;99.90;;;;;;4986854;28;20689;-77
2024/02/23 04:19:15;;;;;;;2.33;1.63;;;12.60;99.90;;;;;;4996354;28;20242;-76
2024/02/23 04:21:44;;;;;;;1.55;1.20;;;12.60;99.90;;;;;;4996168;28;20230;-77
2024/02/23 04:24:11;;;;;;;3.30;2.38;;;12.60;99.90;;;;;;4996426;28;20234;-77
2024/02/23 04:26:40;;;;;;;7.68;3.28;;;12.70;99.90;;;;;;4996032;28;20238;-78
2024/02/23 04:29:08;;;;;;;0.95;0.80;;;12.70;99.90;;;;;;4996831;28;20308;-79
2024/02/23 04:31:41;;;;;;;4.20;1.77;;;12.60;99.90;;;;;;4985766;28;20231;-77
2024/02/23 04:34:08;;;;;;;2.60;1.40;;;12.60;99.90;;;;;;4996480;28;20239;-78
2024/02/23 04:36:35;;;;;;;2.00;1.05;;;12.60;99.90;;;;;;4996165;28;20231;-78
2024/02/23 04:39:03;;;;;;;5.28;1.70;;;12.60;99.90;;;;;;4995962;28;20230;-77
2024/02/23 04:41:30;;;;;;;1.05;0.80;;;12.50;99.90;;;;;;4996292;28;20231;-77
2024/02/23 04:44:00;;;;;;;2.33;1.93;;;12.40;99.90;;;;;;4995256;28;20277;-77
2024/02/23 04:46:29;;;;;;;2.38;1.13;;;12.40;99.90;;;;;;4996433;28;20843;-78
2024/02/23 04:48:56;;;;;;;2.65;1.27;;;12.30;99.90;;;;;;4995481;28;20289;-78
2024/02/23 04:51:24;;;;;;;2.67;1.20;;;12.30;99.90;;;;;;4995942;28;20231;-78
2024/02/23 04:53:51;;;;;;;2.58;0.73;;;12.30;99.90;;;;;;4995425;28;20250;-78
2024/02/23 04:56:18;;;;;;;2.35;1.40;;;12.30;99.90;;;;;;4996255;28;20482;-78
2024/02/23 04:58:46;;;;;;;3.25;1.50;;;12.40;99.90;;;;;;4995597;28;20231;-79
2024/02/23 05:01:14;;;;;;;2.85;1.67;;;12.40;99.90;;;;;;4995982;28;20689;-77
2024/02/23 05:03:41;;;;;;;4.07;3.55;;;12.30;99.90;;;;;;4994306;28;20222;-76
2024/02/23 05:06:08;;;;;;;0.80;0.80;;;12.40;99.90;;;;;;4996394;28;20227;-78
2024/02/23 05:08:35;;;;;;;1.55;0.80;;;12.30;99.90;;;;;;4996080;28;20613;-77
2024/02/23 05:11:04;;;;;;;1.40;0.90;;;12.30;99.90;;;;;;4995630;28;20297;-77
2024/02/23 05:13:31;;;;;;;6.10;4.38;;;12.40;99.90;;;;;;4995860;28;20246;-77
2024/02/23 05:16:01;;;;;;;1.33;1.23;;;12.40;99.90;;;;;;4995410;28;20219;-78
2024/02/23 05:18:40;;;;;;;2.00;0.80;;;12.40;99.90;;;;;;4995931;28;20227;-77
2024/02/23 05:21:07;;;;;;;1.20;0.90;;;12.40;99.90;;;;;;4994510;28;20230;-77
2024/02/23 05:23:36;;;;;;;1.13;0.80;;;12.40;99.90;;;;;;4995183;28;20226;-77
2024/02/23 05:26:03;;;;;;;4.68;1.48;;;12.30;99.90;;;;;;4995030;28;20250;-78
2024/02/23 05:28:33;;;;;;;0.90;0.80;;;12.40;99.90;;;;;;4995859;28;20223;-77
2024/02/23 05:31:00;;;;;;;1.10;0.75;;;12.40;99.90;;;;;;4994344;28;20243;-76
2024/02/23 05:33:30;;;;;;;0.90;0.90;;;12.30;99.90;;;;;;4995194;28;20227;-77
2024/02/23 05:36:01;;;;;;;1.10;0.90;;;12.30;99.90;;;;;;4994850;28;20330;-76
2024/02/23 05:38:31;;;;;;;1.00;0.82;;;12.30;99.90;;;;;;4995222;28;20568;-77
2024/02/23 05:40:59;;;;;;;0.70;0.60;;;12.20;99.90;;;;;;4994361;28;20731;-77
2024/02/23 05:43:26;;;;;;;1.58;0.70;;;12.20;99.90;;;;;;4993660;28;20547;-77
2024/02/23 05:45:54;;;;;;;1.25;1.10;;;12.10;99.90;;;;;;4977090;28;20231;-78
2024/02/23 05:48:21;;;;;;;2.55;1.00;;;12.00;99.90;;;;;;4975479;28;20228;-78
2024/02/23 05:50:51;;;;;;;0.95;0.93;;;12.00;99.90;;;;;;4974764;28;20339;-77
2024/02/23 05:56:06;;;;;;;4.57;3.05;;;11.90;99.90;;;;;;4963267;28;20266;-78
2024/02/23 05:58:38;;;;;;;0.80;0.80;;;11.80;99.90;;;;;;4975292;28;20223;-78
2024/02/23 06:01:05;;;;;;;1.70;1.52;;;11.70;99.90;;;;;;4974967;28;20313;-76
2024/02/23 06:03:32;;;;;;;1.75;0.85;;;11.70;99.90;;;;;;4975296;28;20227;-78
2024/02/23 06:06:01;;;;;;;1.90;0.82;;;11.70;99.90;;;;;;4974500;28;20242;-77
2024/02/23 06:08:28;;;;;;;1.13;1.02;;;11.70;99.90;;;;;;4975446;28;20238;-77
2024/02/23 06:10:55;;;;;;;8.38;5.63;;;11.70;99.90;;;;;;4966158;28;20215;-77
2024/02/23 06:13:29;;;;;;;2.10;1.30;;;11.70;99.90;;;;;;4966589;28;20255;-78
2024/02/23 06:15:56;;;;;;;1.17;1.08;;;11.60;99.90;;;;;;4973727;28;20222;-78
2024/02/23 06:18:23;;;;;;;1.98;1.48;;;11.60;99.90;;;;;;4975008;28;20231;-79
2024/02/23 06:20:59;;;;;;;2.85;2.20;;;11.60;99.90;;;;;;4974678;28;20239;-79
2024/02/23 06:23:27;;;;;;;3.85;3.45;;;11.60;99.90;;;;;;5003953;28;20224;-78
2024/02/23 06:25:55;;;;;;;1.95;1.30;;;11.60;99.90;;;;;;5004976;28;20247;-78
2024/02/23 06:28:22;;;;;;;1.33;1.20;;;11.60;99.90;;;;;;5013803;28;20230;-78
2024/02/23 06:31:04;;;;;;;1.40;0.93;;;11.60;99.90;;;;;;5001958;28;20217;-78
2024/02/23 06:33:31;;;;;;;2.38;1.38;;;11.60;99.90;;;;;;5005054;28;20279;-78
2024/02/23 06:36:04;;;;;;;2.35;1.45;;;11.50;99.90;;;;;;5013388;28;20245;-78
2024/02/23 06:38:32;;;;;;;3.40;1.35;;;11.50;99.90;;;;;;5013896;28;20230;-77
2024/02/23 06:41:00;;;;;;;1.45;1.00;;;11.50;99.90;;;;;;5013316;28;20230;-77
2024/02/23 06:43:36;;;;;;;1.08;0.95;;;11.50;99.90;;;;;;5012965;28;20605;-77
2024/02/23 06:46:08;;;;;;;1.88;1.13;;;11.50;99.90;;;;;;4993353;28;20589;-77
2024/02/23 06:48:35;;;;;;;1.40;1.10;;;11.50;99.90;;;;;;4993926;28;20597;-76
2024/02/23 06:51:03;;;;;;;1.30;1.00;;;11.60;99.90;;;;;;4993334;28;20230;-77
2024/02/23 06:53:30;;;;;;;3.47;1.85;;;11.60;99.90;;;;;;4993722;28;20565;-77
2024/02/23 06:56:00;;;;;;;2.50;2.25;;;11.60;99.90;;;;;;4992907;28;20226;-77
2024/02/23 06:58:27;;;;;;;1.67;1.55;;;11.70;99.90;;;;;;4993059;28;20246;-77
2024/02/23 07:00:54;;;;;;;3.97;3.05;;;11.60;99.90;;;;;;4992735;28;20530;-77
2024/02/23 07:03:25;;;;;;;1.60;1.50;;;11.60;99.90;;;;;;4993916;28;20231;-76
2024/02/23 07:05:52;;;;;;;2.13;1.70;;;11.60;99.90;;;;;;4991768;28;20245;-76
2024/02/23 07:08:20;;;;;;;2.33;2.13;;;11.60;99.90;;;;;;4994103;28;20234;-76
2024/02/23 07:10:47;;;;;;;1.55;1.45;;;11.60;99.90;;;;;;4992977;28;20246;-77
2024/02/23 07:13:17;;;;;;;2.88;1.63;;;11.70;99.90;;;;;;4982360;28;20231;-76
2024/02/23 07:15:44;;;;;;;3.75;0.95;;;11.70;99.90;;;;;;4993039;28;20677;-77
2024/02/23 07:18:15;;;;;;;1.42;1.33;;;11.60;99.90;;;;;;4982821;28;20249;-78
2024/02/23 07:20:42;;;;;;;0.82;0.80;;;11.60;99.90;;;;;;4992251;28;20230;-77
2024/02/23 07:23:10;;;;;;;2.03;1.52;;;11.70;99.90;;;;;;4993749;28;20234;-78
2024/02/23 07:25:37;;;;;;;3.05;0.90;;;11.70;99.90;;;;;;4993398;28;20222;-77
2024/02/23 07:28:08;;;;;;;0.93;0.80;;;11.60;99.90;;;;;;4993932;28;20229;-78
2024/02/23 07:30:39;;;;;;;1.60;1.23;;;11.60;99.90;;;;;;4993922;28;20241;-78
2024/02/23 07:33:07;;;;;;;1.77;0.98;;;11.60;99.90;;;;;;4992572;28;20241;-78
2024/02/23 07:35:36;;;;;;;1.83;1.10;;;11.60;99.90;;;;;;4993135;28;20222;-78
2024/02/23 07:38:09;;;;;;;1.20;1.00;;;11.70;99.90;;;;;;4992707;28;20226;-78
2024/02/23 07:40:39;;;;;;;2.10;0.90;;;11.70;99.90;;;;;;4993158;28;20227;-77
2024/02/23 07:43:06;;;;;;;0.88;0.85;;;11.70;99.90;;;;;;4993020;28;20223;-77
2024/02/23 07:45:39;;;;;;;1.40;0.80;;;11.70;99.90;;;;;;4993355;28;20689;-77
2024/02/23 07:48:08;;;;;;;2.88;0.88;;;11.70;99.90;;;;;;4984878;28;20242;-77
2024/02/23 07:50:37;;;;;;;1.60;1.20;;;11.70;99.90;;;;;;4993508;28;20218;-78
2024/02/23 07:53:07;;;;;;;1.10;0.98;;;11.70;99.90;;;;;;4992775;28;20234;-78
2024/02/23 07:55:34;;;;;;;1.30;1.05;;;11.70;99.90;;;;;;4994061;28;20309;-78
2024/02/23 07:58:02;;;;;;;3.10;2.38;;;11.70;99.90;;;;;;4992984;28;20256;-78
2024/02/23 08:00:29;;;;;;;3.13;2.30;;;11.70;99.90;;;;;;4994064;28;20536;-78
2024/02/23 08:03:08;;;;;;;4.20;2.60;;;11.70;99.90;;;;;;4992661;28;20231;-77
2024/02/23 08:05:35;;;;;;;3.03;2.05;;;11.70;99.90;;;;;;4991800;28;20261;-77
2024/02/23 08:08:04;;;;;;;2.03;1.65;;;11.70;99.90;;;;;;4995478;28;20218;-77
2024/02/23 08:10:31;;;;;;;1.55;1.10;;;11.70;99.90;;;;;;4996541;28;20243;-77
2024/02/23 08:13:05;;;;;;;1.10;1.00;;;11.70;99.90;;;;;;4986331;28;20222;-77
2024/02/23 08:15:36;;;;;;;0.93;0.75;;;11.70;99.90;;;;;;4996769;28;20285;-77
2024/02/23 08:18:04;;;;;;;2.40;1.40;;;11.70;99.90;;;;;;4996742;28;20233;-78
2024/02/23 08:20:32;;;;;;;0.80;0.80;;;11.70;99.90;;;;;;4996738;28;20246;-77
2024/02/23 08:23:00;;;;;;;1.67;0.90;;;11.70;99.90;;;;;;4994744;28;20245;-78
2024/02/23 08:25:29;;;;;;;1.48;1.00;;;11.70;99.90;;;;;;4997201;28;20325;-78
2024/02/23 08:27:56;;;;;;;2.00;1.80;;;11.80;99.90;;;;;;4994971;28;20611;-79
2024/02/23 08:30:24;;;;;;;1.17;0.90;;;11.80;99.90;;;;;;4996649;28;20571;-78
2024/02/23 08:32:51;;;;;;;2.05;0.95;;;11.90;99.90;;;;;;4996545;28;20234;-77
2024/02/23 08:35:18;;;;;;;1.10;0.93;;;11.90;99.90;;;;;;4993776;28;20273;-77
2024/02/23 08:37:47;;;;;;;1.00;0.80;;;12.00;99.90;;;;;;4995337;28;20232;-77
2024/02/23 08:40:19;;;;;;;6.78;3.10;;;12.00;99.90;;;;;;4996221;28;20237;-76
2024/02/23 08:42:49;;;;;;;2.08;1.95;;;12.10;99.90;;;;;;4996353;28;20227;-76
2024/02/23 08:45:17;;;;;;;1.85;1.00;;;12.00;99.90;;;;;;4996038;28;20630;-77
2024/02/23 08:47:47;;;;;;;0.88;0.80;;;12.00;99.90;;;;;;4996505;28;20285;-76
2024/02/23 08:50:14;;;;;;;3.72;0.95;;;12.00;99.90;;;;;;4995877;28;20285;-78
2024/02/23 08:52:43;;;;;;;1.45;0.80;;;11.90;99.90;;;;;;4994833;28;20313;-78
2024/02/23 08:55:14;;;;;;;2.05;1.48;;;11.90;99.90;;;;;;4995658;28;20677;-76
2024/02/23 08:57:40;;;;;;;1.52;0.80;;;11.90;99.90;;;;;;4996000;28;20246;-77
2024/02/23 09:00:08;;;;;;;1.00;0.77;;;11.90;99.90;;;;;;4994592;28;20219;-76
2024/02/23 09:02:42;;;;;;;3.00;1.55;;;11.90;99.90;;;;;;4997951;28;20222;-76
2024/02/23 09:05:12;;;;;;;2.05;1.40;;;11.90;99.90;;;;;;4997661;28;20691;-76
2024/02/23 09:07:39;;;;;;;1.48;1.00;;;11.90;99.90;;;;;;4995392;28;20219;-76
2024/02/23 09:10:07;;;;;;;1.40;0.80;;;11.90;99.90;;;;;;5001170;28;20230;-76
2024/02/23 09:12:35;;;;;;;1.00;0.85;;;11.90;99.40;;;;;;4995215;28;20234;-76
2024/02/23 09:15:02;;;;;;;3.00;0.90;;;11.90;99.40;;;;;;5002623;28;20225;-77
2024/02/23 09:17:29;;;;;;;1.00;0.90;;;11.90;99.40;;;;;;4995105;28;20258;-78
2024/02/23 09:19:56;;;;;;;1.52;0.80;;;11.90;98.90;;;;;;4995240;28;20238;-76
2024/02/23 09:22:29;;;;;;;2.40;0.80;;;12.00;99.20;;;;;;4994782;28;20673;-78
2024/02/23 09:24:57;;;;;;;2.67;0.77;;;12.00;99.10;;;;;;4995888;28;20229;-76
2024/02/23 09:27:27;;;;;;;1.00;0.90;;;12.00;99.10;;;;;;4995057;28;20227;-76
2024/02/23 09:30:13;;;;;;;1.10;0.80;;;12.00;98.50;;;;;;4995819;28;20669;-78
2024/02/23 09:32:41;;;;;;;1.27;0.90;;;12.00;98.30;;;;;;4996362;28;20250;-76
2024/02/23 09:35:12;;;;;;;0.85;0.70;;;12.00;98.50;;;;;;4995301;28;20226;-78
2024/02/23 09:37:41;;;;;;;1.92;0.85;;;12.10;98.50;;;;;;4975534;28;20233;-78
2024/02/23 09:40:10;;;;;;;1.77;1.08;;;12.10;98.50;;;;;;4994676;28;20545;-77
2024/02/23 09:42:38;;;;;;;1.77;1.45;;;12.20;98.00;;;;;;4993897;28;20234;-77
2024/02/23 09:45:12;;;;;;;1.92;1.05;;;12.10;97.70;;;;;;5006647;28;20310;-77
2024/02/23 09:47:40;;;;;;;1.52;0.90;;;12.10;97.40;;;;;;5014440;28;20226;-78
2024/02/23 09:50:10;;;;;;;1.13;0.80;;;12.10;95.80;;;;;;5014707;28;20246;-75
2024/02/23 09:52:38;;;;;;;1.30;0.90;;;12.00;95.90;;;;;;5013746;28;20309;-76
2024/02/23 09:55:08;;;;;;;1.60;0.90;;;12.10;96.20;;;;;;5014972;28;20222;-76
2024/02/23 09:57:36;;;;;;;1.35;1.25;;;12.10;96.30;;;;;;4995404;28;20304;-78
2024/02/23 10:00:06;;;;;;;1.52;0.90;;;12.10;96.10;;;;;;4989557;28;20680;-77
2024/02/23 10:02:35;;;;;;;1.23;0.93;;;12.10;96.20;;;;;;4994031;28;20576;-77
2024/02/23 10:05:03;;;;;;;1.00;0.90;;;12.10;95.90;;;;;;4994386;28;20230;-77
2024/02/23 10:07:30;;;;;;;1.92;0.90;;;12.10;96.30;;;;;;4994670;28;20238;-77
2024/02/23 10:09:59;;;;;;;1.92;1.42;;;12.20;96.40;;;;;;5002181;28;20323;-77
2024/02/23 10:12:26;;;;;;;1.08;0.93;;;12.30;95.90;;;;;;4994650;28;20281;-77
2024/02/23 10:15:04;;;;;;;1.95;1.20;;;12.30;96.00;;;;;;4994506;28;20233;-77
2024/02/23 10:17:31;;;;;;;1.13;0.80;;;12.30;96.30;;;;;;4994214;28;20240;-76
2024/02/23 10:20:07;;;;;;;2.28;0.77;;;12.50;96.60;;;;;;4999724;28;20214;-78
2024/02/23 10:22:36;;;;;;;1.30;0.90;;;12.40;96.70;;;;;;4994804;28;20568;-79
2024/02/23 10:25:04;;;;;;;1.48;0.77;;;12.30;96.70;;;;;;4992179;28;20685;-78
2024/02/23 10:27:35;;;;;;;1.55;1.02;;;12.40;96.80;;;;;;4994286;28;20556;-78
2024/02/23 10:30:06;;;;;;;1.42;1.00;;;12.40;97.00;;;;;;4992342;28;20295;-77
2024/02/23 10:32:34;;;;;;;1.58;0.90;;;12.40;97.20;;;;;;4994304;28;20222;-77
2024/02/23 10:35:04;;;;;;;1.20;1.05;;;12.50;97.60;;;;;;5001228;28;20589;-75
2024/02/23 10:37:34;;;;;;;1.70;1.25;;;12.50;97.10;;;;;;4994077;28;20237;-77
2024/02/23 10:40:04;;;;;;;1.60;1.20;;;12.50;97.20;;;;;;4993761;28;20301;-76
2024/02/23 10:42:40;;;;;;;3.45;2.13;;;12.50;96.80;;;;;;4994479;28;20253;-79
2024/02/23 10:45:10;;;;;;;2.05;1.45;;;12.50;96.70;;;;;;5012657;28;20249;-77
2024/02/23 10:47:55;;;;;;;2.70;1.75;;;12.50;96.60;;;;;;5013568;28;20731;-76
2024/02/23 10:50:26;;;;;;;2.33;2.13;;;12.50;95.90;;;;;;5014144;28;20233;-77
2024/02/23 10:52:54;;;;;;;2.17;1.23;;;12.50;95.90;;;;;;5013135;28;20230;-77
2024/02/23 10:55:26;;;;;;;1.63;0.95;;;12.60;95.70;;;;;;5013465;28;20226;-77
2024/02/23 10:58:00;;;;;;;1.30;1.00;;;12.60;95.60;;;;;;5013482;28;20226;-77
2024/02/23 11:00:27;;;;;;;1.63;0.90;;;12.60;95.60;;;;;;5013537;28;20615;-76
2024/02/23 11:02:58;;;;;;;2.83;0.90;;;12.70;95.50;;;;;;5001744;28;20231;-77
2024/02/23 11:05:29;;;;;;;2.65;1.35;;;12.70;94.50;;;;;;5013099;28;20241;-77
2024/02/23 11:07:57;;;;;;;1.23;0.90;;;12.80;94.40;;;;;;5012691;28;20256;-76
2024/02/23 11:10:27;;;;;;;2.25;1.20;;;12.90;94.20;;;;;;5012503;28;20222;-76
2024/02/23 11:13:00;;;;;;;2.42;1.25;;;12.90;94.10;;;;;;5013333;28;20688;-77
2024/02/23 11:15:33;;;;;;;1.10;0.80;;;12.90;94.60;;;;;;5013441;28;20284;-75
2024/02/23 11:18:01;;;;;;;4.20;2.53;;;12.90;94.80;;;;;;5013009;28;21018;-77
2024/02/23 11:20:43;;;;;;;1.90;1.20;;;12.90;94.70;;;;;;5017012;28;20226;-76
2024/02/23 11:23:17;;;;;;;3.23;2.00;;;12.80;94.90;;;;;;5013242;28;20317;-77
2024/02/23 11:25:44;;;;;;;2.58;1.80;;;12.70;95.00;;;;;;5013579;28;20546;-76
2024/02/23 11:28:24;;;;;;;4.23;1.77;;;12.70;94.90;;;;;;5011496;28;20312;-76
2024/02/23 11:30:52;;;;;;;2.92;1.30;;;12.70;94.80;;;;;;5012200;28;20473;-77
2024/02/23 11:33:33;;;;;;;2.75;2.55;;;12.60;94.40;;;;;;5003263;28;20608;-75
2024/02/23 11:36:11;;;;;;;1.52;1.30;;;12.60;94.80;;;;;;5010466;28;20229;-76
2024/02/23 11:38:40;;;;;;;1.98;1.50;;;12.60;95.00;;;;;;5013337;28;20221;-76
2024/02/23 11:41:17;;;;;;;2.15;1.48;;;12.60;95.30;;;;;;5015990;28;20233;-76
2024/02/23 11:43:47;;;;;;;1.80;1.02;;;12.70;95.00;;;;;;5006392;28;20230;-76
2024/02/23 11:46:15;;;;;;;2.65;1.20;;;12.80;94.40;;;;;;5005643;28;20546;-77
2024/02/23 11:48:46;;;;;;;1.83;0.95;;;12.80;94.80;;;;;;4997358;28;20223;-77
2024/02/23 11:51:17;;;;;;;1.83;1.10;;;12.80;95.20;;;;;;4996112;28;20326;-77
2024/02/23 11:53:45;;;;;;;2.88;1.05;;;12.80;95.00;;;;;;4992797;28;20289;-76
2024/02/23 11:56:13;;;;;;;1.47;1.00;;;12.90;95.20;;;;;;4986822;28;20223;-76
2024/02/23 11:58:47;;;;;;;1.13;0.80;;;12.90;94.70;;;;;;4992723;28;20465;-77
2024/02/23 12:01:14;;;;;;;1.40;0.80;;;12.90;94.00;;;;;;4982391;28;20237;-77
2024/02/23 12:03:43;;;;;;;1.27;1.10;;;12.90;93.80;;;;;;4990942;28;20258;-77
2024/02/23 12:06:16;;;;;;;1.50;0.90;;;12.90;94.00;;;;;;4995918;28;20292;-77
2024/02/23 12:08:47;;;;;;;1.00;0.90;;;12.90;94.20;;;;;;4994169;28;20552;-77
2024/02/23 12:11:15;;;;;;;1.57;0.90;;;13.00;94.40;;;;;;4987000;28;20637;-77
2024/02/23 12:13:49;;;;;;;2.45;1.10;;;13.00;94.40;;;;;;4994516;28;20787;-77
2024/02/23 12:16:16;;;;;;;2.40;1.00;;;13.00;94.40;;;;;;4983951;28;20243;-77
2024/02/23 12:18:43;;;;;;;3.63;1.45;;;13.10;93.90;;;;;;4992210;28;20478;-78
2024/02/23 12:21:25;;;;;;;3.30;0.80;;;13.10;94.00;;;;;;4983228;28;20321;-77
2024/02/23 12:23:52;;;;;;;1.30;1.00;;;13.20;94.10;;;;;;4987157;28;20232;-77
2024/02/23 12:26:25;;;;;;;1.50;1.30;;;13.20;93.50;;;;;;5000097;28;20807;-78
2024/02/23 12:28:53;;;;;;;1.45;1.13;;;13.10;93.50;;;;;;4991559;28;20470;-77
2024/02/23 12:31:26;;;;;;;1.45;0.95;;;13.10;93.80;;;;;;4991464;28;20227;-78
2024/02/23 12:33:58;;;;;;;0.90;0.80;;;13.10;93.90;;;;;;4991794;28;20242;-78
2024/02/23 12:36:26;;;;;;;3.28;0.85;;;13.10;93.90;;;;;;4990407;28;21039;-78
2024/02/23 12:38:53;;;;;;;2.00;1.20;;;13.00;93.70;;;;;;4982399;28;20301;-78
2024/02/23 12:41:27;;;;;;;1.50;1.00;;;13.00;93.70;;;;;;4990667;28;20309;-78
2024/02/23 12:43:55;;;;;;;1.30;1.10;;;13.10;93.70;;;;;;4990369;28;20260;-77
2024/02/23 12:46:23;;;;;;;1.42;1.00;;;13.00;93.30;;;;;;5004380;28;20219;-76
2024/02/23 12:48:57;;;;;;;2.90;1.10;;;13.00;93.40;;;;;;4991375;28;20277;-76
2024/02/23 12:51:27;;;;;;;1.83;0.90;;;13.00;93.80;;;;;;4983460;28;20473;-77
2024/02/23 12:54:05;;;;;;;4.80;4.03;;;13.10;93.60;;;;;;4980929;28;20284;-77
2024/02/23 12:56:33;;;;;;;3.70;2.78;;;13.10;93.90;;;;;;4982695;28;20231;-77
2024/02/23 12:59:02;;;;;;;3.70;1.40;;;13.10;93.50;;;;;;4981785;28;20230;-78